createdAt,value
2019-03-30T00:00:17.613Z,47.98
2019-03-30T00:02:45.982Z,47.96
2019-03-30T00:05:14.352Z,48.00
2019-03-30T00:07:42.727Z,48.02
2019-03-30T00:10:11.435Z,47.99
2019-03-30T00:12:39.807Z,48.00
2019-03-30T00:15:08.181Z,48.03
2019-03-30T00:17:36.557Z,48.17
2019-03-30T00:20:06.370Z,48.07
2019-03-30T00:22:34.757Z,48.02
2019-03-30T00:25:03.786Z,48.07
2019-03-30T00:27:32.168Z,48.12
2019-03-30T00:30:00.784Z,48.12
2019-03-30T00:32:29.157Z,48.14
2019-03-30T00:34:57.536Z,48.08
2019-03-30T00:37:25.919Z,48.08
2019-03-30T00:39:54.285Z,47.97
2019-03-30T00:42:23.136Z,48.22
2019-03-30T00:44:51.507Z,48.05
2019-03-30T00:47:19.889Z,48.01
2019-03-30T00:49:50.048Z,48.14
2019-03-30T00:52:18.351Z,47.96
2019-03-30T00:54:46.714Z,48.17
2019-03-30T00:57:15.093Z,48.24
2019-03-30T00:59:43.472Z,48.12
2019-03-30T01:02:11.842Z,48.16
2019-03-30T01:04:40.214Z,48.15
2019-03-30T01:07:08.603Z,48.14
2019-03-30T01:09:36.969Z,48.15
2019-03-30T01:12:05.354Z,48.06
2019-03-30T01:14:33.713Z,48.02
2019-03-30T01:17:02.096Z,48.10
2019-03-30T01:19:30.467Z,48.11
2019-03-30T01:21:58.832Z,48.12
2019-03-30T01:24:27.214Z,47.95
2019-03-30T01:26:55.598Z,48.10
2019-03-30T01:29:23.956Z,48.08
2019-03-30T01:31:52.315Z,47.88
2019-03-30T01:34:20.698Z,47.91
2019-03-30T01:36:49.061Z,47.94
2019-03-30T01:39:17.436Z,48.01
2019-03-30T01:41:45.813Z,48.13
2019-03-30T01:44:14.189Z,48.00
2019-03-30T01:46:42.562Z,48.01
2019-03-30T01:49:10.939Z,48.01
2019-03-30T01:51:39.311Z,47.92
2019-03-30T01:54:07.678Z,47.98
2019-03-30T01:56:36.044Z,47.96
2019-03-30T01:59:04.424Z,48.04
2019-03-30T02:01:32.812Z,47.87
2019-03-30T02:04:01.183Z,47.93
2019-03-30T02:06:29.545Z,47.89
2019-03-30T02:08:57.915Z,48.06
2019-03-30T02:11:26.281Z,47.99
2019-03-30T02:13:54.674Z,47.96
2019-03-30T02:16:23.879Z,47.94
2019-03-30T02:18:52.259Z,47.93
2019-03-30T02:21:20.638Z,48.11
2019-03-30T02:23:49.147Z,48.06
2019-03-30T02:26:17.519Z,47.95
2019-03-30T02:28:45.911Z,48.11
2019-03-30T02:31:14.285Z,47.96
2019-03-30T02:33:42.690Z,48.03
2019-03-30T02:36:11.154Z,48.07
2019-03-30T02:38:39.557Z,48.07
2019-03-30T02:41:07.936Z,48.03
2019-03-30T02:43:36.314Z,47.94
2019-03-30T02:46:04.705Z,48.01
2019-03-30T02:48:33.089Z,48.16
2019-03-30T02:51:01.468Z,48.18
2019-03-30T02:53:29.927Z,48.15
2019-03-30T02:55:58.309Z,48.06
2019-03-30T02:58:26.680Z,48.08
2019-03-30T03:00:55.075Z,48.13
2019-03-30T03:03:24.256Z,48.07
2019-03-30T03:05:52.648Z,48.11
2019-03-30T03:08:21.022Z,47.95
2019-03-30T03:10:49.407Z,48.04
2019-03-30T03:13:17.780Z,48.10
2019-03-30T03:15:46.176Z,48.04
2019-03-30T03:18:14.547Z,48.17
2019-03-30T03:20:42.947Z,48.12
2019-03-30T03:23:11.306Z,48.02
2019-03-30T03:25:39.694Z,48.07
2019-03-30T03:28:08.064Z,48.14
2019-03-30T03:30:36.524Z,48.03
2019-03-30T03:33:04.909Z,48.00
2019-03-30T03:35:33.304Z,48.07
2019-03-30T03:38:01.675Z,48.04
2019-03-30T03:40:30.068Z,47.96
2019-03-30T03:42:58.439Z,48.08
2019-03-30T03:45:26.840Z,48.09
2019-03-30T03:47:55.230Z,48.14
2019-03-30T03:50:39.402Z,48.04
2019-03-30T03:53:08.127Z,48.10
2019-03-30T03:55:39.305Z,48.00
2019-03-30T03:58:08.433Z,48.11
2019-03-30T04:00:37.564Z,48.09
2019-03-30T04:03:08.300Z,47.91
2019-03-30T04:05:39.219Z,48.04
2019-03-30T04:08:10.516Z,48.03
2019-03-30T04:10:39.708Z,48.14
2019-03-30T04:13:10.775Z,48.01
2019-03-30T04:15:39.247Z,48.00
2019-03-30T04:18:07.713Z,47.92
2019-03-30T04:20:36.115Z,48.09
2019-03-30T04:23:04.828Z,48.16
2019-03-30T04:25:33.183Z,48.05
2019-03-30T04:28:01.583Z,48.08
2019-03-30T04:30:30.011Z,48.10
2019-03-30T04:32:58.386Z,48.04
2019-03-30T04:35:26.758Z,48.11
2019-03-30T04:37:55.148Z,48.17
2019-03-30T04:40:23.518Z,48.11
2019-03-30T04:42:51.887Z,48.13
2019-03-30T04:45:20.292Z,48.25
2019-03-30T04:47:48.669Z,48.16
2019-03-30T04:50:17.073Z,48.29
2019-03-30T04:52:45.471Z,48.14
2019-03-30T04:55:13.850Z,48.04
2019-03-30T04:57:42.244Z,48.12
2019-03-30T05:00:11.485Z,48.02
2019-03-30T05:02:39.901Z,47.96
2019-03-30T05:05:08.665Z,48.29
2019-03-30T05:07:37.063Z,48.13
2019-03-30T05:10:07.256Z,48.05
2019-03-30T05:12:35.696Z,48.04
2019-03-30T05:15:05.862Z,47.97
2019-03-30T05:17:46.929Z,48.13
2019-03-30T05:20:06.382Z,47.98
2019-03-30T05:22:34.771Z,47.98
2019-03-30T05:25:03.148Z,47.93
2019-03-30T05:27:31.535Z,47.94
2019-03-30T05:29:59.918Z,47.95
2019-03-30T05:32:28.312Z,47.74
2019-03-30T05:34:56.681Z,47.81
2019-03-30T05:37:25.562Z,47.89
2019-03-30T05:39:54.177Z,47.94
2019-03-30T05:42:22.566Z,47.99
2019-03-30T05:44:50.936Z,47.92
2019-03-30T05:47:19.346Z,47.93
2019-03-30T05:49:47.723Z,47.94
2019-03-30T05:52:26.524Z,48.10
2019-03-30T05:54:46.207Z,47.94
2019-03-30T05:57:14.588Z,47.99
2019-03-30T05:59:42.982Z,48.03
2019-03-30T06:02:11.360Z,47.97
2019-03-30T06:04:39.742Z,48.04
2019-03-30T06:07:08.114Z,48.07
2019-03-30T06:09:36.507Z,48.15
2019-03-30T06:12:04.955Z,47.98
2019-03-30T06:14:33.346Z,48.16
2019-03-30T06:17:03.724Z,48.14
2019-03-30T06:19:32.122Z,48.07
2019-03-30T06:22:00.508Z,48.10
2019-03-30T06:24:28.902Z,47.99
2019-03-30T06:26:57.288Z,48.00
2019-03-30T06:29:26.018Z,48.03
2019-03-30T06:31:54.400Z,47.92
2019-03-30T06:34:22.838Z,47.97
2019-03-30T06:36:51.170Z,47.97
2019-03-30T06:39:19.565Z,47.96
2019-03-30T06:41:47.944Z,47.90
2019-03-30T06:44:16.331Z,47.87
2019-03-30T06:46:44.710Z,47.92
2019-03-30T06:49:13.109Z,47.92
2019-03-30T06:51:41.489Z,47.97
2019-03-30T06:54:14.767Z,47.89
2019-03-30T06:56:42.663Z,47.85
2019-03-30T06:59:11.065Z,47.83
2019-03-30T07:01:39.512Z,47.86
2019-03-30T07:04:11.114Z,47.92
2019-03-30T07:06:39.242Z,48.04
2019-03-30T07:09:08.582Z,48.04
2019-03-30T07:11:40.015Z,48.18
2019-03-30T07:14:08.684Z,48.36
2019-03-30T07:16:37.134Z,48.53
2019-03-30T07:19:05.810Z,48.62
2019-03-30T07:21:34.181Z,48.87
2019-03-30T07:24:02.592Z,48.90
2019-03-30T07:26:31.030Z,48.81
2019-03-30T07:28:59.435Z,48.80
2019-03-30T07:31:27.813Z,48.75
2019-03-30T07:33:56.570Z,48.68
2019-03-30T07:36:25.035Z,48.53
2019-03-30T07:38:53.420Z,48.13
2019-03-30T07:41:21.867Z,47.96
2019-03-30T07:43:50.249Z,47.86
2019-03-30T07:46:19.793Z,47.91
2019-03-30T07:52:09.525Z,47.77
2019-03-30T07:54:37.900Z,47.81
2019-03-30T07:57:16.515Z,47.77
2019-03-30T07:59:36.388Z,47.67
2019-03-30T08:02:04.752Z,47.62
2019-03-30T08:04:33.125Z,47.42
2019-03-30T08:07:01.498Z,47.29
2019-03-30T08:09:29.876Z,47.22
2019-03-30T08:11:58.405Z,47.00
2019-03-30T08:14:26.884Z,46.91
2019-03-30T08:16:55.259Z,46.62
2019-03-30T08:19:23.623Z,46.46
2019-03-30T08:21:52.015Z,46.29
2019-03-30T08:24:20.383Z,46.13
2019-03-30T08:26:48.768Z,45.96
2019-03-30T08:29:17.151Z,45.71
2019-03-30T08:31:45.526Z,45.58
2019-03-30T08:34:13.895Z,45.46
2019-03-30T08:36:42.285Z,45.31
2019-03-30T08:39:10.668Z,45.25
2019-03-30T08:41:39.059Z,45.14
2019-03-30T08:44:07.427Z,44.44
2019-03-30T08:46:35.811Z,44.01
2019-03-30T08:49:04.185Z,43.28
2019-03-30T08:51:32.568Z,41.93
2019-03-30T08:54:00.947Z,41.67
2019-03-30T08:56:29.336Z,41.50
2019-03-30T08:58:57.707Z,40.80
2019-03-30T09:01:26.082Z,40.39
2019-03-30T09:03:54.449Z,39.78
2019-03-30T09:06:22.826Z,39.29
2019-03-30T09:08:51.195Z,38.64
2019-03-30T09:11:19.584Z,38.49
2019-03-30T09:13:47.955Z,38.02
2019-03-30T09:16:16.342Z,37.62
2019-03-30T09:18:44.712Z,37.45
2019-03-30T09:21:13.093Z,37.34
2019-03-30T09:23:41.472Z,36.97
2019-03-30T09:26:09.853Z,36.65
2019-03-30T09:28:38.219Z,36.71
2019-03-30T09:31:06.599Z,36.53
2019-03-30T09:33:34.981Z,36.47
2019-03-30T09:36:03.360Z,36.25
2019-03-30T09:38:31.725Z,36.08
2019-03-30T09:41:00.107Z,35.81
2019-03-30T09:43:28.481Z,35.64
2019-03-30T09:45:57.633Z,35.44
2019-03-30T09:48:26.016Z,35.12
2019-03-30T09:50:54.492Z,34.69
2019-03-30T09:53:22.841Z,34.45
2019-03-30T09:55:51.232Z,34.13
2019-03-30T09:58:19.608Z,33.94
2019-03-30T10:00:47.989Z,33.63
2019-03-30T10:03:16.357Z,33.11
2019-03-30T10:05:44.735Z,32.69
2019-03-30T10:08:13.121Z,32.30
2019-03-30T10:10:41.499Z,31.86
2019-03-30T10:13:09.885Z,31.07
2019-03-30T10:15:38.253Z,30.43
2019-03-30T10:18:06.641Z,29.78
2019-03-30T10:20:35.014Z,29.14
2019-03-30T10:23:03.408Z,28.43
2019-03-30T10:25:31.769Z,27.83
2019-03-30T10:28:00.164Z,27.27
2019-03-30T10:30:28.543Z,26.59
2019-03-30T10:32:56.920Z,25.77
2019-03-30T10:35:25.286Z,25.36
2019-03-30T10:37:53.675Z,24.75
2019-03-30T10:40:22.059Z,24.25
2019-03-30T10:42:50.452Z,23.40
2019-03-30T10:45:18.826Z,22.83
2019-03-30T10:47:47.214Z,22.25
2019-03-30T10:50:15.603Z,21.99
2019-03-30T10:52:43.988Z,21.49
2019-03-30T10:55:12.357Z,20.97
2019-03-30T10:57:40.726Z,20.51
2019-03-30T11:00:10.619Z,20.11
2019-03-30T11:02:40.666Z,19.69
2019-03-30T11:05:09.050Z,19.40
2019-03-30T11:07:37.452Z,19.15
2019-03-30T11:10:09.239Z,18.98
2019-03-30T11:12:37.612Z,18.74
2019-03-30T11:15:07.319Z,18.58
2019-03-30T11:17:35.708Z,18.37
2019-03-30T11:20:05.441Z,18.13
2019-03-30T11:22:33.809Z,17.92
2019-03-30T11:25:07.837Z,17.81
2019-03-30T11:27:32.282Z,17.76
2019-03-30T11:30:00.655Z,17.63
2019-03-30T11:32:29.036Z,17.61
2019-03-30T11:34:57.423Z,17.66
2019-03-30T11:37:25.816Z,17.54
2019-03-30T11:39:54.192Z,17.61
2019-03-30T11:42:22.565Z,18.15
2019-03-30T11:44:50.972Z,18.52
2019-03-30T11:47:19.323Z,18.64
2019-03-30T11:49:47.706Z,18.08
2019-03-30T11:52:16.152Z,17.81
2019-03-30T11:54:44.587Z,17.74
2019-03-30T11:57:12.970Z,17.76
2019-03-30T11:59:41.341Z,17.82
2019-03-30T12:02:09.712Z,18.91
2019-03-30T12:04:38.094Z,19.01
2019-03-30T12:07:06.471Z,19.07
2019-03-30T12:09:34.876Z,18.93
2019-03-30T12:12:03.248Z,19.05
2019-03-30T12:14:31.632Z,19.25
2019-03-30T12:17:00.006Z,19.45
2019-03-30T12:19:29.191Z,19.91
2019-03-30T12:21:57.570Z,20.40
2019-03-30T12:24:25.954Z,20.86
2019-03-30T12:26:55.645Z,21.33
2019-03-30T12:29:24.099Z,22.03
2019-03-30T12:31:52.473Z,22.84
2019-03-30T12:34:20.903Z,24.24
2019-03-30T12:36:49.238Z,25.77
2019-03-30T12:39:17.613Z,26.79
2019-03-30T12:41:45.986Z,27.30
2019-03-30T12:44:14.367Z,27.82
2019-03-30T12:46:42.749Z,28.17
2019-03-30T12:49:11.132Z,28.30
2019-03-30T12:51:39.511Z,28.66
2019-03-30T12:54:07.894Z,28.69
2019-03-30T12:56:36.272Z,29.00
2019-03-30T12:59:04.716Z,29.08
2019-03-30T13:01:33.079Z,29.18
2019-03-30T13:04:01.458Z,29.03
2019-03-30T13:06:29.847Z,29.08
2019-03-30T13:08:58.283Z,28.85
2019-03-30T13:11:26.664Z,29.20
2019-03-30T13:13:55.033Z,29.32
2019-03-30T13:16:26.261Z,29.49
2019-03-30T13:18:53.540Z,29.54
2019-03-30T13:21:21.918Z,29.57
2019-03-30T13:23:50.306Z,29.78
2019-03-30T13:26:18.679Z,30.04
2019-03-30T13:28:47.060Z,30.28
2019-03-30T13:31:15.455Z,30.54
2019-03-30T13:33:43.828Z,30.73
2019-03-30T13:36:12.483Z,30.95
2019-03-30T13:38:41.233Z,31.14
2019-03-30T13:41:09.624Z,31.33
2019-03-30T13:43:37.984Z,31.48
2019-03-30T13:46:06.367Z,31.67
2019-03-30T13:48:34.747Z,31.81
2019-03-30T13:51:03.136Z,31.92
2019-03-30T13:53:31.511Z,31.99
2019-03-30T13:55:59.942Z,32.00
2019-03-30T13:58:28.314Z,32.05
2019-03-30T14:00:56.827Z,32.06
2019-03-30T14:03:25.265Z,32.12
2019-03-30T14:05:53.652Z,32.18
2019-03-30T14:08:22.022Z,32.27
2019-03-30T14:10:50.478Z,32.38
2019-03-30T14:13:18.854Z,32.43
2019-03-30T14:15:47.242Z,32.40
2019-03-30T14:18:15.616Z,32.55
2019-03-30T14:20:44.003Z,32.66
2019-03-30T14:23:12.465Z,32.48
2019-03-30T14:25:40.841Z,32.44
2019-03-30T14:28:09.297Z,32.52
2019-03-30T14:30:37.659Z,32.47
2019-03-30T14:33:06.041Z,32.43
2019-03-30T14:35:34.423Z,32.59
2019-03-30T14:38:02.792Z,32.51
2019-03-30T14:40:31.167Z,32.67
2019-03-30T14:43:00.377Z,32.79
2019-03-30T14:45:28.756Z,32.68
2019-03-30T14:47:58.074Z,32.67
2019-03-30T14:50:26.606Z,32.78
2019-03-30T14:52:54.995Z,32.81
2019-03-30T14:55:23.378Z,33.11
2019-03-30T14:57:51.759Z,33.19
2019-03-30T15:00:20.241Z,33.37
2019-03-30T15:02:48.579Z,33.55
2019-03-30T15:05:17.020Z,33.72
2019-03-30T15:07:46.308Z,33.90
2019-03-30T15:10:14.826Z,34.02
2019-03-30T15:12:43.210Z,34.19
2019-03-30T15:15:12.719Z,34.28
2019-03-30T15:17:41.440Z,34.44
2019-03-30T15:20:10.799Z,34.59
2019-03-30T15:22:39.185Z,34.73
2019-03-30T15:25:09.178Z,34.82
2019-03-30T15:27:37.560Z,35.02
2019-03-30T15:30:07.278Z,35.28
2019-03-30T15:32:35.673Z,35.39
2019-03-30T15:35:04.915Z,35.54
2019-03-30T15:37:33.296Z,35.65
2019-03-30T15:40:01.662Z,35.79
2019-03-30T15:42:30.866Z,35.84
2019-03-30T15:44:59.257Z,35.92
2019-03-30T15:47:27.616Z,36.06
2019-03-30T15:49:56.156Z,36.18
2019-03-30T15:52:24.527Z,36.29
2019-03-30T15:54:52.950Z,36.54
2019-03-30T15:57:21.332Z,36.64
2019-03-30T15:59:49.795Z,36.77
2019-03-30T16:02:18.320Z,36.84
2019-03-30T16:04:46.699Z,37.05
2019-03-30T16:07:15.072Z,37.15
2019-03-30T16:09:43.443Z,37.19
2019-03-30T16:12:11.828Z,37.26
2019-03-30T16:14:40.223Z,37.37
2019-03-30T16:17:08.603Z,37.50
2019-03-30T16:19:37.057Z,37.59
2019-03-30T16:22:05.495Z,37.70
2019-03-30T16:24:34.806Z,37.74
2019-03-30T16:27:03.198Z,37.81
2019-03-30T16:29:31.576Z,37.95
2019-03-30T16:31:59.951Z,37.99
2019-03-30T16:34:28.349Z,38.03
2019-03-30T16:36:56.724Z,38.08
2019-03-30T16:39:25.099Z,38.00
2019-03-30T16:41:53.465Z,38.07
2019-03-30T16:44:21.852Z,38.36
2019-03-30T16:46:50.216Z,38.71
2019-03-30T16:49:18.608Z,38.55
2019-03-30T16:51:46.980Z,38.62
2019-03-30T16:54:15.635Z,38.27
2019-03-30T16:56:44.003Z,37.34
2019-03-30T16:59:13.972Z,37.33
2019-03-30T17:01:42.474Z,37.53
2019-03-30T17:04:10.851Z,37.06
2019-03-30T17:06:39.314Z,36.60
2019-03-30T17:09:07.831Z,36.16
2019-03-30T17:11:36.219Z,35.94
2019-03-30T17:14:04.582Z,35.42
2019-03-30T17:16:32.961Z,35.48
2019-03-30T17:19:01.624Z,35.32
2019-03-30T17:21:30.004Z,34.44
2019-03-30T17:23:58.365Z,34.52
2019-03-30T17:26:26.750Z,34.07
2019-03-30T17:28:55.110Z,34.14
2019-03-30T17:31:23.496Z,33.90
2019-03-30T17:33:52.013Z,33.54
2019-03-30T17:36:20.386Z,33.51
2019-03-30T17:38:48.768Z,33.20
2019-03-30T17:41:17.220Z,33.27
2019-03-30T17:43:45.585Z,33.18
2019-03-30T17:46:13.967Z,33.10
2019-03-30T17:48:44.052Z,33.02
2019-03-30T17:51:12.433Z,33.68
2019-03-30T17:53:40.822Z,33.86
2019-03-30T17:56:09.199Z,34.07
2019-03-30T17:58:37.577Z,34.51
2019-03-30T18:01:05.964Z,34.92
2019-03-30T18:03:34.348Z,35.28
2019-03-30T18:06:02.736Z,35.86
2019-03-30T18:08:32.010Z,36.06
2019-03-30T18:11:03.879Z,36.29
2019-03-30T18:13:30.494Z,36.56
2019-03-30T18:15:58.879Z,36.90
2019-03-30T18:18:27.374Z,37.15
2019-03-30T18:20:55.773Z,37.29
2019-03-30T18:23:24.149Z,37.45
2019-03-30T18:25:52.512Z,37.61
2019-03-30T18:28:26.978Z,37.79
2019-03-30T18:30:51.102Z,37.99
2019-03-30T18:33:19.912Z,38.15
2019-03-30T18:35:48.937Z,38.35
2019-03-30T18:38:17.383Z,38.16
2019-03-30T18:40:45.748Z,38.35
2019-03-30T18:43:14.195Z,38.43
2019-03-30T18:45:42.566Z,38.73
2019-03-30T18:48:12.293Z,38.91
2019-03-30T18:50:41.815Z,39.08
2019-03-30T18:53:10.541Z,39.46
2019-03-30T18:55:38.912Z,39.31
2019-03-30T18:58:07.292Z,39.55
2019-03-30T19:00:35.674Z,39.17
2019-03-30T19:03:04.442Z,39.14
2019-03-30T19:05:32.813Z,39.38
2019-03-30T19:08:01.941Z,39.36
2019-03-30T19:10:30.326Z,39.61
2019-03-30T19:12:58.740Z,39.76
2019-03-30T19:15:27.128Z,40.00
2019-03-30T19:17:55.521Z,40.17
2019-03-30T19:20:23.900Z,40.37
2019-03-30T19:22:52.291Z,40.62
2019-03-30T19:25:20.663Z,40.96
2019-03-30T19:27:49.430Z,41.07
2019-03-30T19:30:18.348Z,41.22
2019-03-30T19:32:46.741Z,41.22
2019-03-30T19:35:15.118Z,41.63
2019-03-30T19:37:43.523Z,41.66
2019-03-30T19:40:11.917Z,41.80
2019-03-30T19:42:40.419Z,42.03
2019-03-30T19:45:08.946Z,42.24
2019-03-30T19:47:37.346Z,42.38
2019-03-30T19:50:08.639Z,42.46
2019-03-30T19:52:40.125Z,42.54
2019-03-30T19:55:07.968Z,42.75
2019-03-30T19:57:36.383Z,42.95
2019-03-30T20:00:08.156Z,43.22
2019-03-30T20:02:36.609Z,43.47
2019-03-30T20:05:06.630Z,44.16
2019-03-30T20:07:35.046Z,44.16
2019-03-30T20:10:05.105Z,45.04
2019-03-30T20:12:33.515Z,46.40
2019-03-30T20:15:02.932Z,47.19
2019-03-30T20:17:31.323Z,47.83
2019-03-30T20:19:59.752Z,49.87
2019-03-30T20:22:28.405Z,49.99
2019-03-30T20:24:56.796Z,49.20
2019-03-30T20:27:25.268Z,48.60
2019-03-30T20:29:53.648Z,47.83
2019-03-30T20:32:22.115Z,47.82
2019-03-30T20:34:50.507Z,47.90
2019-03-30T20:37:19.050Z,47.55
2019-03-30T20:39:47.543Z,47.51
2019-03-30T20:42:15.993Z,47.68
2019-03-30T20:44:44.429Z,47.71
2019-03-30T20:47:12.816Z,47.71
2019-03-30T20:49:41.203Z,47.55
2019-03-30T20:52:09.598Z,47.73
2019-03-30T20:54:38.047Z,47.80
2019-03-30T20:57:06.494Z,47.82
2019-03-30T20:59:40.122Z,47.74
2019-03-30T21:02:05.078Z,47.49
2019-03-30T21:04:33.476Z,47.53
2019-03-30T21:07:02.006Z,47.49
2019-03-30T21:09:30.476Z,47.25
2019-03-30T21:11:58.854Z,47.89
2019-03-30T21:14:27.316Z,48.00
2019-03-30T21:16:55.779Z,47.74
2019-03-30T21:19:24.160Z,47.66
2019-03-30T21:21:52.534Z,47.83
2019-03-30T21:24:21.002Z,47.76
2019-03-30T21:26:49.393Z,47.74
2019-03-30T21:29:17.801Z,47.77
2019-03-30T21:31:49.113Z,47.91
2019-03-30T21:34:16.577Z,47.71
2019-03-30T21:36:44.963Z,48.04
2019-03-30T21:39:13.346Z,47.89
2019-03-30T21:41:41.719Z,48.14
2019-03-30T21:44:21.310Z,48.07
2019-03-30T21:46:40.215Z,48.17
2019-03-30T21:49:08.598Z,47.93
2019-03-30T21:51:36.982Z,48.09
2019-03-30T21:54:05.462Z,48.28
2019-03-30T21:56:33.998Z,48.20
2019-03-30T21:59:02.563Z,48.32
2019-03-30T22:01:30.961Z,48.33
2019-03-30T22:03:59.344Z,48.44
2019-03-30T22:06:27.751Z,48.34
2019-03-30T22:08:56.613Z,48.26
2019-03-30T22:11:25.027Z,48.35
2019-03-30T22:13:53.399Z,47.99
2019-03-30T22:16:21.852Z,47.95
2019-03-30T22:18:50.215Z,48.07
2019-03-30T22:21:18.725Z,47.90
2019-03-30T22:23:47.140Z,48.02
2019-03-30T22:26:15.527Z,48.02
2019-03-30T22:28:43.917Z,47.91
2019-03-30T22:31:12.303Z,47.00
2019-03-30T22:33:40.695Z,47.00
2019-03-30T22:36:09.142Z,47.34
2019-03-30T22:38:37.527Z,47.23
2019-03-30T22:41:05.959Z,47.29
2019-03-30T22:43:34.351Z,47.38
2019-03-30T22:46:02.724Z,47.33
2019-03-30T22:48:31.172Z,47.24
2019-03-30T22:50:59.573Z,47.11
2019-03-30T22:53:28.972Z,47.08
2019-03-30T22:55:57.353Z,46.95
2019-03-30T22:58:25.727Z,46.97
2019-03-30T23:01:04.034Z,47.03
2019-03-30T23:03:32.493Z,46.45
2019-03-30T23:06:00.855Z,46.38
2019-03-30T23:08:30.221Z,46.45
2019-03-30T23:10:58.657Z,46.53
2019-03-30T23:13:27.042Z,46.56
2019-03-30T23:15:55.415Z,46.65
2019-03-30T23:18:23.791Z,46.78
2019-03-30T23:20:54.584Z,46.74
2019-03-30T23:23:22.978Z,46.79
2019-03-30T23:25:51.363Z,46.73
2019-03-30T23:28:19.743Z,46.71
2019-03-30T23:30:54.588Z,46.72
2019-03-30T23:33:18.313Z,46.76
2019-03-30T23:35:46.685Z,46.71
2019-03-30T23:38:15.077Z,46.72
2019-03-30T23:40:43.773Z,46.75
2019-03-30T23:43:12.188Z,46.69
2019-03-30T23:45:40.561Z,46.71
2019-03-30T23:48:09.013Z,46.75
2019-03-30T23:50:37.397Z,46.74
2019-03-30T23:53:07.466Z,46.71
2019-03-30T23:55:35.965Z,46.84
2019-03-30T23:58:06.011Z,46.78
